Time;durP1;ratioP1;P1;durP2;ratioP2;P2;SDS_P1;SDS_P2;PMS_P1;PMS_P2;Temp;Humidity;BMP_temperature;BMP_pressure;BME280_temperature;BME280_humidity;BME280_pressure;Samples;Min_cycle;Max_cycle;Signal;HPM_P1;HPM_P2
2023/07/20 08:35:24;;;;;;;;;2.25;2.25;;;;;24.88;41.38;101127.84;5019396;28;45233;-42
2023/07/20 08:37:49;;;;;;;;;2.50;2.50;;;;;24.90;41.86;101136.53;5027015;28;45944;-44
2023/07/20 08:40:15;;;;;;;;;3.00;2.75;;;;;24.90;42.07;101131.25;5029712;28;44703;-41
2023/07/20 08:42:42;;;;;;;;;2.00;2.00;;;;;24.91;41.41;101130.28;5028390;28;45357;-42
2023/07/20 08:45:08;;;;;;;;;1.50;1.50;;;;;24.90;41.50;101125.94;5029011;28;45527;-42
2023/07/20 08:47:34;;;;;;;;;2.00;2.00;;;;;24.90;40.87;101119.81;5011815;28;45355;-42
2023/07/20 08:50:01;;;;;;;;;3.00;2.00;;;;;24.92;40.69;101118.72;5028342;28;45333;-40
2023/07/20 08:52:28;;;;;;;;;2.25;2.00;;;;;24.89;40.54;101118.94;5005801;28;45314;-42
2023/07/20 08:54:53;;;;;;;;;2.00;2.00;;;;;24.91;40.65;101125.00;5025852;28;45255;-39
2023/07/20 08:57:21;;;;;;;;;3.25;2.00;;;;;24.90;40.38;101115.34;5025604;28;46181;-42
2023/07/20 08:59:47;;;;;;;;;1.00;0.25;;;;;24.93;41.06;101119.56;5022506;28;45636;-42
2023/07/20 09:02:17;;;;;;;;;2.00;2.00;;;;;24.94;40.40;101121.25;5003436;28;45519;-42
2023/07/20 09:04:44;;;;;;;;;3.00;3.00;;;;;24.91;41.02;101117.03;5020907;28;45503;-43
2023/07/20 09:07:11;;;;;;;;;1.00;1.00;;;;;24.96;40.70;101127.31;5019996;28;46386;-43
2023/07/20 09:09:41;;;;;;;;;2.00;2.00;;;;;24.94;40.47;101118.63;5019708;28;45278;-41
2023/07/20 09:12:13;;;;;;;;;2.50;1.00;;;;;24.96;40.30;101119.38;5021608;28;45338;-43
2023/07/20 09:14:38;;;;;;;;;1.75;1.00;;;;;24.94;40.39;101122.13;5038041;28;44839;-41
2023/07/20 09:17:04;;;;;;;;;2.00;2.00;;;;;24.96;40.37;101125.53;5021578;28;54490;-42
2023/07/20 09:19:29;;;;;;;;;1.00;1.00;;;;;24.97;40.22;101124.53;5020280;28;45448;-42
2023/07/20 09:21:55;;;;;;;;;2.00;2.00;;;;;24.97;40.32;101121.06;5020060;28;45282;-40
2023/07/20 09:24:21;;;;;;;;;3.00;2.00;;;;;24.97;40.44;101119.25;5020061;28;45325;-44
2023/07/20 09:26:48;;;;;;;;;2.00;2.00;;;;;24.98;39.96;101118.28;5020193;28;45708;-43
2023/07/20 09:29:18;;;;;;;;;3.00;1.75;;;;;24.96;39.54;101112.28;5024417;28;45499;-46
2023/07/20 09:31:59;;;;;;;;;4.00;2.00;;;;;24.96;39.95;101112.28;5015820;28;44804;-46
2023/07/20 09:34:24;;;;;;;;;1.50;1.50;;;;;24.97;39.60;101113.94;5027435;28;45321;-44
2023/07/20 09:36:50;;;;;;;;;1.00;1.00;;;;;24.96;39.44;101114.94;5026156;28;54929;-40
2023/07/20 09:39:16;;;;;;;;;1.00;1.00;;;;;24.98;39.81;101110.34;5021229;28;45368;-40
2023/07/20 09:41:42;;;;;;;;;3.75;1.00;;;;;24.97;39.36;101111.28;5002032;28;45605;-42
2023/07/20 09:44:10;;;;;;;;;2.00;2.00;;;;;24.99;39.28;101109.38;5003695;28;45330;-42
2023/07/20 09:46:49;;;;;;;;;1.25;1.25;;;;;24.99;38.73;101106.72;5019999;28;46263;-42
2023/07/20 09:49:14;;;;;;;;;2.50;1.00;;;;;24.96;39.06;101095.50;5031159;28;44899;-46
2023/07/20 09:51:42;;;;;;;;;1.50;1.50;;;;;25.00;38.66;101099.63;5023803;28;45350;-41
2023/07/20 09:54:07;;;;;;;;;1.50;1.50;;;;;25.00;38.58;101105.78;5027112;28;45298;-42
2023/07/20 09:56:33;;;;;;;;;2.50;2.00;;;;;25.01;39.03;101101.34;5020145;28;46039;-43
2023/07/20 09:58:59;;;;;;;;;1.00;1.00;;;;;25.00;38.94;101100.47;5018731;28;45360;-41
2023/07/20 10:01:26;;;;;;;;;1.00;1.00;;;;;25.00;39.21;101095.16;5019074;28;45419;-45
2023/07/20 10:03:54;;;;;;;;;1.00;1.00;;;;;25.01;38.97;101102.16;5019320;28;45316;-42
2023/07/20 10:06:24;;;;;;;;;2.50;1.00;;;;;25.04;37.82;101097.63;5019367;28;45918;-39
2023/07/20 10:08:53;;;;;;;;;1.00;1.00;;;;;25.05;37.87;101091.34;5019112;28;45433;-46
2023/07/20 10:11:20;;;;;;;;;1.50;1.00;;;;;25.03;37.74;101083.50;5019126;28;45277;-44
2023/07/20 10:13:50;;;;;;;;;1.50;1.00;;;;;25.07;37.78;101084.16;5019723;28;45399;-46
2023/07/20 10:16:29;;;;;;;;;2.00;2.00;;;;;25.03;37.81;101072.06;5022193;28;46505;-44
2023/07/20 10:19:20;;;;;;;;;1.25;1.00;;;;;25.06;37.81;101082.44;5018621;28;45533;-42
2023/07/20 10:21:59;;;;;;;;;2.00;1.00;;;;;25.08;37.56;101084.03;5027282;28;45443;-45
2023/07/20 10:24:26;;;;;;;;;2.00;2.00;;;;;25.09;38.21;101083.06;5018587;28;45271;-42
2023/07/20 10:26:52;;;;;;;;;2.25;1.00;;;;;25.09;37.93;101082.22;5029683;28;45735;-41
2023/07/20 10:29:18;;;;;;;;;1.00;1.00;;;;;25.10;37.75;101083.91;5019817;28;45255;-41
2023/07/20 10:31:44;;;;;;;;;2.00;2.00;;;;;25.09;37.94;101061.84;5020965;28;45351;-45
2023/07/20 10:34:10;;;;;;;;;1.00;1.00;;;;;25.07;37.72;101047.03;5019047;28;45415;-43
2023/07/20 10:36:45;;;;;;;;;1.25;1.00;;;;;25.07;37.06;101053.16;5032175;28;45281;-46
2023/07/20 10:39:23;;;;;;;;;1.50;1.00;;;;;25.08;36.97;101054.84;5026567;28;45440;-42
2023/07/20 10:41:48;;;;;;;;;1.50;1.00;;;;;25.11;36.98;101048.47;5017898;28;45294;-44
2023/07/20 10:44:20;;;;;;;;;0.75;0.50;;;;;25.08;36.92;101049.56;5017714;28;45311;-40
2023/07/20 10:46:46;;;;;;;;;1.50;1.00;;;;;25.11;37.36;101048.47;5011518;28;45421;-46
2023/07/20 10:49:14;;;;;;;;;0.00;0.00;;;;;25.10;36.65;101046.78;5024523;28;45619;-46
2023/07/20 10:51:47;;;;;;;;;2.00;2.00;;;;;25.11;36.95;101053.78;5032205;28;45409;-43
2023/07/20 10:54:15;;;;;;;;;0.50;0.50;;;;;25.12;36.78;101051.03;5032245;28;45298;-42
2023/07/20 10:56:41;;;;;;;;;1.00;1.00;;;;;25.12;37.09;101050.19;5042428;28;45309;-42
2023/07/20 10:59:36;;;;;;;;;0.75;0.00;;;;;25.07;36.93;101042.56;5032546;28;44835;-42
2023/07/20 11:02:06;;;;;;;;;1.50;1.00;;;;;25.11;36.44;101051.13;5023008;28;45251;-41
2023/07/20 11:04:40;;;;;;;;;1.00;1.00;;;;;25.11;36.23;101051.13;5035575;28;45349;-42
2023/07/20 11:07:06;;;;;;;;;1.00;1.00;;;;;25.11;36.64;101048.47;5001481;28;47178;-44
2023/07/20 11:09:35;;;;;;;;;1.00;1.00;;;;;25.12;36.12;101042.22;5018117;28;45328;-40
2023/07/20 11:12:12;;;;;;;;;1.75;1.00;;;;;25.12;35.58;101044.88;5004970;28;45378;-45
2023/07/20 11:14:54;;;;;;;;;1.00;1.00;;;;;25.13;35.74;101038.63;5010097;28;45342;-40
2023/07/20 11:17:22;;;;;;;;;1.25;1.25;;;;;25.12;36.31;101040.44;5033179;28;45305;-38
2023/07/20 11:19:55;;;;;;;;;0.25;0.25;;;;;25.13;36.35;101039.47;5023420;28;45740;-42
2023/07/20 11:22:21;;;;;;;;;1.00;1.00;;;;;25.12;36.29;101042.22;4999976;28;45234;-46
2023/07/20 11:24:48;;;;;;;;;1.00;1.00;;;;;25.12;36.50;101040.44;5017231;28;45594;-47
2023/07/20 11:27:13;;;;;;;;;3.00;1.75;;;;;25.13;36.18;101041.25;5016776;28;46278;-43
2023/07/20 11:29:39;;;;;;;;;2.25;1.00;;;;;25.13;36.70;101038.63;5016495;28;55379;-40
2023/07/20 11:32:04;;;;;;;;;2.00;2.00;;;;;25.14;36.01;101037.66;4999094;28;45370;-44
2023/07/20 11:34:32;;;;;;;;;1.75;1.75;;;;;25.16;35.71;101041.06;5018428;28;45561;-43
2023/07/20 11:36:57;;;;;;;;;1.00;1.00;;;;;25.14;35.71;101032.34;5018930;28;46172;-44
2023/07/20 11:39:26;;;;;;;;;1.00;1.00;;;;;25.16;36.21;101036.56;5016650;28;45234;-43
2023/07/20 11:41:53;;;;;;;;;0.00;0.00;;;;;25.17;35.79;101038.28;5017244;28;45402;-42
2023/07/20 11:44:29;;;;;;;;;1.00;1.00;;;;;25.18;35.78;101033.84;5016832;28;45392;-43
2023/07/20 11:47:04;;;;;;;;;1.50;1.50;;;;;25.19;35.82;101027.53;5016576;28;46688;-44
2023/07/20 11:49:34;;;;;;;;;0.75;0.75;;;;;25.18;35.74;101023.22;5016400;28;45899;-42
2023/07/20 11:51:59;;;;;;;;;2.00;2.00;;;;;25.18;35.75;101017.91;5023717;28;45195;-41
2023/07/20 11:54:25;;;;;;;;;2.00;2.00;;;;;25.21;35.43;101024.81;5029635;28;45206;-46
2023/07/20 11:56:55;;;;;;;;;1.25;1.00;;;;;25.18;35.57;101009.97;5016149;28;45258;-44
2023/07/20 11:59:21;;;;;;;;;2.50;1.00;;;;;25.19;36.01;101018.75;5015806;28;45388;-44
2023/07/20 12:01:46;;;;;;;;;1.50;1.00;;;;;25.21;35.04;101012.38;5016592;28;45484;-45
2023/07/20 12:04:12;;;;;;;;;2.25;1.00;;;;;25.19;35.51;101003.66;5020903;28;45411;-45
2023/07/20 12:06:37;;;;;;;;;1.25;1.00;;;;;25.20;35.32;101007.19;5019820;28;46987;-46
2023/07/20 12:09:03;;;;;;;;;1.00;1.00;;;;;25.19;35.49;101006.31;5021150;28;45612;-41
2023/07/20 12:11:34;;;;;;;;;1.25;1.00;;;;;25.22;34.99;101010.59;5027701;28;45495;-41
2023/07/20 12:14:00;;;;;;;;;1.00;1.00;;;;;25.19;35.51;101002.84;5023623;28;45467;-46
2023/07/20 12:16:28;;;;;;;;;2.00;1.00;;;;;25.20;34.94;101007.19;5030475;28;46051;-42
2023/07/20 12:19:05;;;;;;;;;1.00;1.00;;;;;25.21;34.60;100999.09;5039508;28;45155;-43
2023/07/20 12:21:31;;;;;;;;;1.75;1.00;;;;;25.22;34.92;100986.72;5029842;28;45179;-43
2023/07/20 12:23:58;;;;;;;;;1.50;1.00;;;;;25.20;34.35;100978.00;5020712;28;45630;-39
2023/07/20 12:26:25;;;;;;;;;2.25;1.00;;;;;25.20;34.18;100978.00;5021102;28;46312;-40
2023/07/20 12:28:51;;;;;;;;;1.00;1.00;;;;;25.22;34.20;100978.75;5003278;28;45366;-42
2023/07/20 12:31:16;;;;;;;;;1.00;1.00;;;;;25.20;34.38;100975.38;5027404;28;44743;-42
2023/07/20 12:33:42;;;;;;;;;2.00;1.00;;;;;25.20;34.35;100972.72;5031472;28;45294;-41
2023/07/20 12:36:09;;;;;;;;;1.00;1.00;;;;;25.19;34.76;100971.84;5031297;28;46072;-43
2023/07/20 12:38:34;;;;;;;;;1.00;1.00;;;;;25.19;34.57;100971.84;5027938;28;45576;-42
2023/07/20 12:41:01;;;;;;;;;1.00;1.00;;;;;25.23;34.14;100975.16;5021690;28;45349;-42
2023/07/20 12:43:27;;;;;;;;;1.00;1.00;;;;;25.19;34.42;100965.72;5021507;28;45460;-43
2023/07/20 12:45:52;;;;;;;;;0.25;0.25;;;;;25.22;34.27;100968.97;5002149;28;47517;-47
2023/07/20 12:48:18;;;;;;;;;1.00;1.00;;;;;25.21;34.59;100961.97;5029290;28;45318;-45
2023/07/20 12:50:43;;;;;;;;;1.25;1.00;;;;;25.23;34.15;100962.72;5036418;28;45325;-42
2023/07/20 12:53:08;;;;;;;;;0.75;0.75;;;;;25.24;34.24;100960.94;5022725;28;45586;-42
2023/07/20 12:55:34;;;;;;;;;2.00;1.00;;;;;25.24;34.79;100959.09;5019967;28;46509;-42
2023/07/20 12:57:59;;;;;;;;;1.00;1.00;;;;;25.24;34.16;100956.44;5018969;28;48422;-40
2023/07/20 13:00:24;;;;;;;;;1.50;1.00;;;;;25.24;34.52;100955.63;5018633;28;45324;-43
2023/07/20 13:02:51;;;;;;;;;1.00;1.00;;;;;25.23;34.21;100954.75;5018710;28;55660;-41
2023/07/20 13:05:16;;;;;;;;;2.00;0.00;;;;;25.24;34.03;100950.31;5001059;28;46224;-42
2023/07/20 13:07:42;;;;;;;;;1.00;1.00;;;;;25.24;34.50;100951.16;5018828;28;45420;-42
2023/07/20 13:10:09;;;;;;;;;1.00;1.00;;;;;25.24;34.13;100943.19;5019026;28;45354;-41
2023/07/20 13:12:36;;;;;;;;;0.25;0.25;;;;;25.24;33.89;100937.06;5019001;28;45399;-43
2023/07/20 13:15:05;;;;;;;;;0.25;0.00;;;;;25.23;34.05;100935.34;5018435;28;47330;-43
2023/07/20 13:17:32;;;;;;;;;1.00;1.00;;;;;25.26;34.26;100933.31;5018897;28;45441;-40
2023/07/20 13:19:57;;;;;;;;;1.75;1.75;;;;;25.22;33.74;100929.19;5023518;28;45352;-40
2023/07/20 13:22:23;;;;;;;;;1.75;1.75;;;;;25.25;33.21;100928.09;5033760;28;45293;-42
2023/07/20 13:24:48;;;;;;;;;2.00;1.00;;;;;25.25;33.82;100934.28;5025711;28;46226;-41
2023/07/20 13:27:15;;;;;;;;;1.50;1.50;;;;;25.24;33.54;100931.75;5025112;28;45309;-40
2023/07/20 13:29:40;;;;;;;;;2.75;1.00;;;;;25.26;33.96;100933.31;5031291;28;45352;-43
2023/07/20 13:32:07;;;;;;;;;1.00;1.00;;;;;25.27;33.89;100926.19;5040853;28;45205;-42
2023/07/20 13:34:32;;;;;;;;;1.00;1.00;;;;;25.26;33.88;100917.41;5018483;28;46148;-42
2023/07/20 13:36:58;;;;;;;;;1.00;1.00;;;;;25.26;34.02;100917.41;5020082;28;45250;-46
2023/07/20 13:39:26;;;;;;;;;1.00;1.00;;;;;25.21;33.86;100900.97;5022973;28;45399;-45
2023/07/20 13:41:51;;;;;;;;;1.00;1.00;;;;;25.26;33.91;100913.88;5021189;28;45528;-44
2023/07/20 13:44:16;;;;;;;;;2.00;2.00;;;;;25.28;33.85;100906.66;5018422;28;46896;-44
2023/07/20 13:46:42;;;;;;;;;1.00;1.00;;;;;25.28;33.25;100906.66;5017991;28;45325;-45
2023/07/20 13:49:07;;;;;;;;;1.00;1.00;;;;;25.26;33.67;100904.13;5018179;28;45329;-42
2023/07/20 13:51:32;;;;;;;;;0.00;0.00;;;;;25.27;33.58;100900.53;5026442;28;45381;-46
2023/07/20 13:53:57;;;;;;;;;1.67;1.00;;;;;25.28;33.68;100894.25;5032339;28;68411;-43
2023/07/20 13:56:24;;;;;;;;;0.50;0.50;;;;;25.27;33.69;100887.25;5017803;28;45542;-40
2023/07/20 13:58:49;;;;;;;;;0.75;0.75;;;;;25.28;33.62;100893.41;5018054;28;45257;-43
2023/07/20 14:01:16;;;;;;;;;2.25;1.00;;;;;25.29;33.46;100887.13;5017962;28;45583;-41
2023/07/20 14:03:41;;;;;;;;;2.25;1.00;;;;;25.28;33.66;100888.97;5017308;28;46167;-42
2023/07/20 14:06:06;;;;;;;;;0.25;0.25;;;;;25.27;33.07;100889.91;5023810;28;57374;-44
2023/07/20 14:08:32;;;;;;;;;1.25;1.25;;;;;25.27;33.57;100881.97;5037454;28;45210;-44
2023/07/20 14:10:58;;;;;;;;;1.00;1.00;;;;;25.30;33.01;100888.84;5017882;28;45316;-43
2023/07/20 14:13:23;;;;;;;;;1.00;1.00;;;;;25.29;33.53;100885.34;5033342;28;46146;-44
2023/07/20 14:15:50;;;;;;;;;0.75;0.00;;;;;25.28;33.26;100878.34;5036984;28;45411;-42
2023/07/20 14:18:15;;;;;;;;;1.00;1.00;;;;;25.29;33.39;100882.69;5022521;28;45294;-43
2023/07/20 14:20:40;;;;;;;;;0.75;0.75;;;;;25.29;33.07;100880.03;5017676;28;53863;-47
2023/07/20 14:23:06;;;;;;;;;3.00;2.00;;;;;25.28;33.37;100878.34;5017532;28;45440;-42
2023/07/20 14:25:32;;;;;;;;;1.00;1.00;;;;;25.29;33.13;100877.38;5017691;28;45274;-45
2023/07/20 14:27:57;;;;;;;;;1.00;1.00;;;;;25.31;33.33;100871.97;5017366;28;45368;-45
2023/07/20 14:30:23;;;;;;;;;1.75;1.75;;;;;25.30;33.18;100868.44;5017145;28;54398;-47
2023/07/20 14:32:48;;;;;;;;;1.50;1.00;;;;;25.32;33.42;100871.00;5017054;28;47101;-44
2023/07/20 14:35:13;;;;;;;;;1.00;1.00;;;;;25.29;33.68;100866.78;5017178;28;45186;-47
2023/07/20 14:37:39;;;;;;;;;1.50;1.00;;;;;25.31;33.46;100869.31;5017908;28;45234;-47
2023/07/20 14:40:05;;;;;;;;;1.00;1.00;;;;;25.31;33.14;100854.22;5020866;28;45498;-40
2023/07/20 14:42:32;;;;;;;;;2.25;1.00;;;;;25.30;33.30;100851.69;5023638;28;45434;-46
2023/07/20 14:44:57;;;;;;;;;1.25;1.00;;;;;25.32;33.02;100855.09;5024949;28;45254;-47
2023/07/20 14:47:22;;;;;;;;;2.00;2.00;;;;;25.28;33.37;100846.53;5024452;28;49835;-44
2023/07/20 14:49:48;;;;;;;;;4.50;1.00;;;;;25.32;32.71;100839.16;5022162;28;45376;-47
2023/07/20 14:52:13;;;;;;;;;1.00;1.00;;;;;25.32;33.46;100850.59;5028488;28;46157;-45
2023/07/20 14:54:39;;;;;;;;;3.00;1.00;;;;;25.32;32.87;100845.31;5024999;28;45431;-43
2023/07/20 14:57:04;;;;;;;;;2.25;1.00;;;;;25.31;32.86;100837.47;5027208;28;44647;-45
2023/07/20 14:59:29;;;;;;;;;0.25;0.25;;;;;25.30;32.92;100833.97;5029616;28;45688;-43
2023/07/20 15:01:55;;;;;;;;;1.75;1.75;;;;;25.31;32.83;100833.00;5029327;28;58553;-43
2023/07/20 15:04:20;;;;;;;;;1.00;1.00;;;;;25.32;33.00;100837.34;5010171;28;45420;-46
2023/07/20 15:06:45;;;;;;;;;1.00;1.00;;;;;25.28;33.28;100827.94;5036091;28;57421;-41
2023/07/20 15:09:11;;;;;;;;;1.00;1.00;;;;;25.31;32.88;100829.50;5037343;28;44777;-42
2023/07/20 15:11:37;;;;;;;;;3.00;1.00;;;;;25.30;33.01;100831.31;5025105;28;45360;-47
2023/07/20 15:14:02;;;;;;;;;1.00;1.00;;;;;25.32;32.98;100834.69;5017489;28;45452;-40
2023/07/20 15:16:27;;;;;;;;;1.00;1.00;;;;;25.30;32.96;100827.81;5018172;28;45348;-36
2023/07/20 15:18:53;;;;;;;;;2.00;2.00;;;;;25.33;33.04;100832.91;5017731;28;45451;-35
2023/07/20 15:21:18;;;;;;;;;1.00;1.00;;;;;25.32;32.79;100832.03;5024876;28;62706;-42
2023/07/20 15:23:44;;;;;;;;;1.25;1.25;;;;;25.31;33.45;100829.50;5027445;28;45199;-42
2023/07/20 15:26:11;;;;;;;;;1.25;1.00;;;;;25.30;33.29;100831.31;5027893;28;44687;-37
2023/07/20 15:28:36;;;;;;;;;1.75;1.75;;;;;25.30;33.03;100826.00;5019357;28;45241;-39
2023/07/20 15:31:04;;;;;;;;;1.50;1.00;;;;;25.34;32.74;100836.38;5018362;28;45265;-42
2023/07/20 15:33:29;;;;;;;;;2.00;2.00;;;;;25.32;33.26;100829.38;5016734;28;45742;-37
2023/07/20 15:35:55;;;;;;;;;2.00;1.00;;;;;25.33;33.25;100830.25;5016522;28;45424;-41
2023/07/20 15:38:21;;;;;;;;;1.00;1.00;;;;;25.34;33.11;100825.78;5016760;28;45502;-40
2023/07/20 15:40:49;;;;;;;;;1.25;1.00;;;;;25.34;33.20;100825.78;4998711;28;45777;-40
2023/07/20 15:43:14;;;;;;;;;2.00;2.00;;;;;25.34;33.07;100820.47;4998747;28;45684;-35
2023/07/20 15:45:40;;;;;;;;;0.00;0.00;;;;;25.32;33.12;100824.06;5017845;28;45226;-36
2023/07/20 15:48:05;;;;;;;;;1.00;1.00;;;;;25.34;32.67;100818.69;5010069;28;45258;-38
2023/07/20 15:50:30;;;;;;;;;1.00;1.00;;;;;25.33;32.85;100814.34;5024799;28;53519;-34
2023/07/20 15:52:56;;;;;;;;;4.75;2.00;;;;;25.35;32.68;100816.84;5002519;28;46327;-36
2023/07/20 15:55:21;;;;;;;;;2.00;1.25;;;;;25.32;32.87;100808.16;5016702;28;45272;-35
2023/07/20 15:57:46;;;;;;;;;1.33;1.33;;;;;25.34;33.05;100816.03;5019616;28;58038;-37
2023/07/20 16:00:12;;;;;;;;;3.25;3.25;;;;;25.35;32.18;100816.84;5026442;28;46275;-38
2023/07/20 16:02:37;;;;;;;;;1.00;1.00;;;;;25.34;32.39;100815.16;5032721;28;45377;-45
2023/07/20 16:05:03;;;;;;;;;1.75;1.00;;;;;25.34;32.82;100810.72;5031210;28;45334;-39
2023/07/20 16:07:30;;;;;;;;;2.00;1.75;;;;;25.35;32.68;100809.75;5038432;28;44867;-36
2023/07/20 16:10:00;;;;;;;;;1.75;1.75;;;;;25.32;32.61;100799.38;5035403;28;47014;-35
2023/07/20 16:12:30;;;;;;;;;1.00;1.00;;;;;25.35;32.43;100807.09;5033686;28;45180;-37
2023/07/20 16:14:56;;;;;;;;;1.25;1.25;;;;;25.34;32.58;100801.91;5032150;28;45451;-36
2023/07/20 16:17:21;;;;;;;;;1.75;1.75;;;;;25.34;32.16;100793.94;5044467;28;44788;-38
2023/07/20 16:19:46;;;;;;;;;2.50;2.00;;;;;25.34;32.64;100788.63;5045073;28;46126;-34
2023/07/20 16:22:12;;;;;;;;;5.00;1.00;;;;;25.34;32.55;100791.28;5036328;28;45431;-36
2023/07/20 16:24:38;;;;;;;;;1.00;1.00;;;;;25.35;32.13;100787.66;5020832;28;45248;-35
2023/07/20 16:27:05;;;;;;;;;2.00;2.00;;;;;25.35;32.20;100791.19;5019891;28;45345;-38
2023/07/20 16:29:31;;;;;;;;;2.00;2.00;;;;;25.36;32.31;100792.03;5019483;28;45429;-35
2023/07/20 16:31:56;;;;;;;;;3.00;1.25;;;;;25.34;32.06;100784.19;5019224;28;45429;-37
2023/07/20 16:34:22;;;;;;;;;3.50;1.00;;;;;25.36;31.60;100792.03;5019389;28;45320;-38
2023/07/20 16:36:48;;;;;;;;;2.75;1.00;;;;;25.36;32.00;100792.03;5019734;28;45285;-37
2023/07/20 16:39:13;;;;;;;;;0.50;0.50;;;;;25.32;31.68;100776.31;5019167;28;46375;-34
2023/07/20 16:41:39;;;;;;;;;1.00;0.25;;;;;25.34;31.83;100780.69;5019304;28;45362;-36
2023/07/20 16:44:04;;;;;;;;;1.25;1.25;;;;;25.35;31.54;100779.72;5018992;28;45361;-35
2023/07/20 16:46:31;;;;;;;;;1.00;1.00;;;;;25.35;32.29;100774.41;5019116;28;45399;-37
2023/07/20 16:48:58;;;;;;;;;2.00;2.00;;;;;25.34;31.66;100778.88;5019123;28;46598;-38
2023/07/20 16:51:24;;;;;;;;;2.50;2.00;;;;;25.34;32.06;100776.22;5018913;28;45238;-37
2023/07/20 16:53:49;;;;;;;;;2.00;2.00;;;;;25.35;31.76;100775.28;5019226;28;45383;-35
2023/07/20 16:56:15;;;;;;;;;1.50;1.25;;;;;25.34;31.56;100772.72;5018915;28;45507;-34
2023/07/20 16:58:40;;;;;;;;;2.00;2.00;;;;;25.34;31.43;100762.97;5019231;28;46912;-35
2023/07/20 17:01:06;;;;;;;;;2.50;2.00;;;;;25.32;31.76;100760.41;5018994;28;45350;-36
2023/07/20 17:03:32;;;;;;;;;3.00;2.25;;;;;25.34;31.64;100765.63;5019217;28;45369;-38
2023/07/20 17:05:59;;;;;;;;;2.00;2.00;;;;;25.33;32.12;100758.63;5019083;28;45463;-35
2023/07/20 17:08:25;;;;;;;;;1.00;1.00;;;;;25.35;31.33;100763.78;5018794;28;46154;-36
2023/07/20 17:10:52;;;;;;;;;1.75;1.75;;;;;25.34;31.81;100762.97;5006322;28;45237;-35
2023/07/20 17:13:18;;;;;;;;;1.50;1.50;;;;;25.35;31.86;100763.78;5036044;28;52671;-37
2023/07/20 17:15:49;;;;;;;;;2.00;2.00;;;;;25.35;31.45;100767.31;5021669;28;45463;-38
2023/07/20 17:18:16;;;;;;;;;1.00;1.00;;;;;25.34;31.94;100754.16;5024519;28;46834;-36
2023/07/20 17:20:41;;;;;;;;;1.00;1.00;;;;;25.35;31.52;100754.03;5030508;28;45233;-36
2023/07/20 17:23:07;;;;;;;;;1.00;1.00;;;;;25.34;31.42;100746.19;5035765;28;45314;-39
2023/07/20 17:25:32;;;;;;;;;1.50;1.50;;;;;25.36;31.85;100749.56;5032093;28;45361;-35
2023/07/20 17:27:58;;;;;;;;;1.00;1.00;;;;;25.36;32.01;100752.22;5001479;28;48340;-41
2023/07/20 17:30:28;;;;;;;;;1.00;1.00;;;;;25.35;31.85;100753.19;5020738;28;45250;-37
2023/07/20 17:32:53;;;;;;;;;2.00;2.00;;;;;25.35;31.71;100748.75;5024988;28;45352;-41
2023/07/20 17:35:20;;;;;;;;;1.75;1.75;;;;;25.34;31.69;100747.03;5031297;28;45311;-39
2023/07/20 17:37:47;;;;;;;;;3.00;1.75;;;;;25.35;31.75;100748.75;5024399;28;46273;-39
2023/07/20 17:40:13;;;;;;;;;4.00;1.00;;;;;25.35;31.56;100751.41;5025096;28;45775;-40
2023/07/20 17:42:39;;;;;;;;;1.25;1.25;;;;;25.36;31.88;100755.72;5007756;28;45351;-37
2023/07/20 17:45:05;;;;;;;;;2.00;2.00;;;;;25.36;32.26;100749.56;5023747;28;45556;-39
2023/07/20 17:47:31;;;;;;;;;2.00;2.00;;;;;25.34;31.77;100747.03;5028408;28;45297;-34
2023/07/20 17:49:57;;;;;;;;;2.50;1.25;;;;;25.31;31.68;100741.97;5021576;28;45373;-41
2023/07/20 17:52:22;;;;;;;;;1.00;1.00;;;;;25.36;32.18;100749.56;5026882;28;45464;-37
2023/07/20 17:54:47;;;;;;;;;2.00;2.00;;;;;25.36;32.40;100745.09;5030864;28;45536;-40
2023/07/20 17:57:13;;;;;;;;;1.25;1.00;;;;;25.33;32.02;100740.06;5001719;28;47503;-35
2023/07/20 17:59:38;;;;;;;;;1.75;1.75;;;;;25.36;32.08;100744.25;5000464;28;45419;-35
2023/07/20 18:02:05;;;;;;;;;1.50;1.50;;;;;25.37;32.13;100740.66;5018186;28;45940;-34
2023/07/20 18:04:30;;;;;;;;;1.00;1.00;;;;;25.36;32.09;100747.75;5018471;28;45409;-37
2023/07/20 18:06:55;;;;;;;;;1.00;1.00;;;;;25.35;32.41;100738.13;5018063;28;46143;-36
2023/07/20 18:09:21;;;;;;;;;2.00;2.00;;;;;25.36;31.95;100741.63;5017643;28;45471;-36
2023/07/20 18:11:46;;;;;;;;;1.50;1.25;;;;;25.35;31.91;100742.56;5018301;28;45516;-40
2023/07/20 18:14:12;;;;;;;;;3.50;2.25;;;;;25.36;31.78;100745.09;5018540;28;45386;-41
2023/07/20 18:16:37;;;;;;;;;2.00;2.00;;;;;25.33;31.98;100742.72;5018997;28;47336;-39
2023/07/20 18:19:02;;;;;;;;;2.50;2.00;;;;;25.37;31.80;100745.97;5019457;28;45394;-42
2023/07/20 18:21:28;;;;;;;;;2.00;2.00;;;;;25.36;31.70;100749.56;5020178;28;58531;-40
2023/07/20 18:23:53;;;;;;;;;2.00;2.00;;;;;25.36;32.00;100753.06;5019488;28;45293;-37
2023/07/20 18:26:19;;;;;;;;;2.00;2.00;;;;;25.36;31.69;100745.09;5018370;28;45996;-41
2023/07/20 18:28:44;;;;;;;;;1.50;1.50;;;;;25.37;32.05;100751.25;5017926;28;45199;-38
2023/07/20 18:31:09;;;;;;;;;2.50;1.50;;;;;25.36;31.87;100747.75;5018012;28;45499;-38
2023/07/20 18:33:35;;;;;;;;;2.00;2.00;;;;;25.36;32.23;100745.09;5018437;28;45250;-41
2023/07/20 18:36:00;;;;;;;;;1.00;1.00;;;;;25.34;32.30;100748.84;5020903;28;46370;-40
2023/07/20 18:38:26;;;;;;;;;3.50;2.00;;;;;25.35;31.68;100746.09;5029455;28;44707;-38
2023/07/20 18:40:52;;;;;;;;;0.00;0.00;;;;;25.36;32.17;100745.09;5027634;28;45222;-39
2023/07/20 18:43:17;;;;;;;;;1.25;1.25;;;;;25.35;31.73;100743.44;5033857;28;45234;-36
2023/07/20 18:45:45;;;;;;;;;1.25;1.25;;;;;25.37;31.84;100748.63;5033618;28;45477;-36
2023/07/20 18:48:11;;;;;;;;;1.00;1.00;;;;;25.34;31.71;100747.03;5029982;28;45676;-38
2023/07/20 18:50:37;;;;;;;;;4.00;2.00;;;;;25.36;32.01;100745.09;5031585;28;45325;-36
2023/07/20 18:53:03;;;;;;;;;4.75;1.75;;;;;25.31;31.64;100736.66;5029550;28;45506;-35
2023/07/20 18:55:31;;;;;;;;;2.00;2.00;;;;;25.36;31.61;100744.25;5028154;28;46332;-35
2023/07/20 18:57:56;;;;;;;;;3.00;1.00;;;;;25.37;31.76;100748.63;5027491;28;45151;-40
2023/07/20 19:00:23;;;;;;;;;1.75;1.50;;;;;25.36;31.56;100757.53;5026111;28;45558;-37
2023/07/20 19:02:48;;;;;;;;;2.00;2.00;;;;;25.36;31.94;100752.22;5011455;28;45492;-35
2023/07/20 19:05:13;;;;;;;;;1.75;1.75;;;;;25.36;31.62;100752.22;5029634;28;46416;-37
2023/07/20 19:07:39;;;;;;;;;1.00;1.00;;;;;25.37;32.07;100745.97;5031753;28;45419;-37
2023/07/20 19:10:06;;;;;;;;;1.50;1.50;;;;;25.34;32.29;100744.41;5029899;28;44751;-37
2023/07/20 19:12:31;;;;;;;;;2.00;2.00;;;;;25.36;32.20;100749.56;5029226;28;45238;-35
2023/07/20 19:14:56;;;;;;;;;1.00;1.00;;;;;25.35;31.79;100751.41;5030664;28;45348;-35
2023/07/20 19:17:25;;;;;;;;;1.50;0.50;;;;;25.37;31.74;100764.53;5009283;28;45323;-37
2023/07/20 19:19:50;;;;;;;;;1.50;1.50;;;;;25.35;32.20;100753.19;5021395;28;45364;-35
2023/07/20 19:22:16;;;;;;;;;2.50;2.00;;;;;25.32;32.19;100760.41;5018847;28;45424;-42
2023/07/20 19:24:41;;;;;;;;;2.00;2.00;;;;;25.36;32.01;100757.53;5025128;28;46073;-37
2023/07/20 19:27:06;;;;;;;;;2.50;2.50;;;;;25.36;31.72;100761.00;5033088;28;44766;-37
2023/07/20 19:29:32;;;;;;;;;2.75;1.75;;;;;25.35;31.68;100755.84;5023303;28;45277;-35
2023/07/20 19:31:57;;;;;;;;;1.50;1.50;;;;;25.37;31.69;100761.88;5018630;28;45320;-36
2023/07/20 19:34:23;;;;;;;;;1.00;1.00;;;;;25.37;32.36;100757.41;5018397;28;45379;-37
2023/07/20 19:36:49;;;;;;;;;2.00;2.00;;;;;25.36;32.07;100758.34;5017941;28;45957;-35
2023/07/20 19:39:14;;;;;;;;;2.00;1.00;;;;;25.35;31.91;100766.44;5028283;28;45190;-34
2023/07/20 19:41:39;;;;;;;;;2.75;2.75;;;;;25.36;32.21;100766.31;5032648;28;45312;-36
2023/07/20 19:44:05;;;;;;;;;4.00;3.00;;;;;25.35;31.66;100764.66;5032905;28;68755;-38
2023/07/20 19:46:30;;;;;;;;;1.00;1.00;;;;;25.32;32.11;100759.59;5025374;28;45358;-35
2023/07/20 19:48:56;;;;;;;;;2.75;2.25;;;;;25.36;31.97;100778.75;5018361;28;45325;-36
2023/07/20 19:51:21;;;;;;;;;1.75;1.75;;;;;25.37;32.28;100777.78;5027587;28;45321;-38
2023/07/20 19:53:47;;;;;;;;;3.00;2.00;;;;;25.37;31.80;100788.41;5019495;28;45978;-40
2023/07/20 19:56:12;;;;;;;;;1.25;1.25;;;;;25.36;31.81;100792.03;5024701;28;45277;-38